createdAt,value
2019-03-23T00:00:30.186Z,2.25
2019-03-23T00:03:37.632Z,2.18
2019-03-23T00:06:44.536Z,2.14
2019-03-23T00:09:51.680Z,2.17
2019-03-23T00:12:59.234Z,2.09
2019-03-23T00:16:06.246Z,2.13
2019-03-23T00:19:13.180Z,2.11
2019-03-23T00:22:20.359Z,2.05
2019-03-23T00:25:27.786Z,1.97
2019-03-23T00:28:34.728Z,1.89
2019-03-23T00:31:41.699Z,1.88
2019-03-23T00:34:48.999Z,1.79
2019-03-23T00:37:56.494Z,1.75
2019-03-23T00:41:03.791Z,1.79
2019-03-23T00:44:11.305Z,1.82
2019-03-23T00:47:19.310Z,1.77
2019-03-23T00:50:26.424Z,1.69
2019-03-23T00:53:33.355Z,1.69
2019-03-23T00:56:40.672Z,1.63
2019-03-23T00:59:47.652Z,1.54
2019-03-23T01:02:54.994Z,1.61
2019-03-23T01:06:02.137Z,1.56
2019-03-23T01:09:09.583Z,1.53
2019-03-23T01:12:17.274Z,1.60
2019-03-23T01:15:24.336Z,1.57
2019-03-23T01:18:31.360Z,1.49
2019-03-23T01:21:38.877Z,1.40
2019-03-23T01:24:46.754Z,1.36
2019-03-23T01:27:53.696Z,1.50
2019-03-23T01:31:00.941Z,1.52
2019-03-23T01:34:08.114Z,1.55
2019-03-23T01:37:15.332Z,1.48
2019-03-23T01:40:22.518Z,1.35
2019-03-23T01:43:29.624Z,1.28
2019-03-23T01:46:36.997Z,1.30
2019-03-23T01:49:44.034Z,1.24
2019-03-23T01:52:50.931Z,1.21
2019-03-23T01:55:57.943Z,1.23
2019-03-23T01:59:05.262Z,1.22
2019-03-23T02:02:12.054Z,1.29
2019-03-23T02:05:19.981Z,1.18
2019-03-23T02:08:26.893Z,1.19
2019-03-23T02:11:34.330Z,1.21
2019-03-23T02:14:41.151Z,1.09
2019-03-23T02:17:48.167Z,1.14
2019-03-23T02:20:55.504Z,1.07
2019-03-23T02:24:02.518Z,1.08
2019-03-23T02:27:09.624Z,1.04
2019-03-23T02:30:17.099Z,0.94
2019-03-23T02:33:24.229Z,0.95
2019-03-23T02:36:31.153Z,0.98
2019-03-23T02:39:38.092Z,1.02
2019-03-23T02:42:44.881Z,0.80
2019-03-23T02:45:51.618Z,0.83
2019-03-23T02:48:58.693Z,0.79
2019-03-23T02:52:05.666Z,0.78
2019-03-23T02:55:13.432Z,0.75
2019-03-23T02:58:20.528Z,0.74
2019-03-23T03:01:28.025Z,0.69
2019-03-23T03:04:34.925Z,0.68
2019-03-23T03:07:43.567Z,0.63
2019-03-23T03:10:50.573Z,0.69
2019-03-23T03:13:57.781Z,0.73
2019-03-23T03:17:04.841Z,0.63
2019-03-23T03:20:12.171Z,0.57
2019-03-23T03:23:19.814Z,0.59
2019-03-23T03:26:27.198Z,0.57
2019-03-23T03:29:34.456Z,0.54
2019-03-23T03:32:41.874Z,0.54
2019-03-23T03:35:48.798Z,0.50
2019-03-23T03:38:56.165Z,0.41
2019-03-23T03:42:03.263Z,0.36
2019-03-23T03:45:11.920Z,0.41
2019-03-23T03:48:18.937Z,0.32
2019-03-23T03:51:26.422Z,0.29
2019-03-23T03:54:34.450Z,0.34
2019-03-23T03:57:42.003Z,0.27
2019-03-23T04:00:52.653Z,0.25
2019-03-23T04:04:00.097Z,0.27
2019-03-23T04:07:09.273Z,0.38
2019-03-23T04:10:17.031Z,0.27
2019-03-23T04:13:25.785Z,0.30
2019-03-23T04:16:33.033Z,0.32
2019-03-23T04:19:40.397Z,0.27
2019-03-23T04:22:47.524Z,0.18
2019-03-23T04:25:54.792Z,0.13
2019-03-23T04:29:01.832Z,0.09
2019-03-23T04:32:09.856Z,0.02
2019-03-23T04:35:17.283Z,-0.03
2019-03-23T04:38:24.443Z,-0.02
2019-03-23T04:41:31.885Z,0.18
2019-03-23T04:44:39.054Z,0.22
2019-03-23T04:47:47.019Z,0.17
2019-03-23T04:50:53.989Z,0.29
2019-03-23T04:54:01.230Z,0.16
2019-03-23T04:57:08.193Z,0.20
2019-03-23T05:00:16.383Z,0.08
2019-03-23T05:03:23.511Z,0.08
2019-03-23T05:06:31.691Z,0.06
2019-03-23T05:09:38.617Z,0.09
2019-03-23T05:12:46.004Z,0.13
2019-03-23T05:15:53.306Z,0.19
2019-03-23T05:19:00.152Z,0.11
2019-03-23T05:22:07.660Z,0.03
2019-03-23T05:25:24.531Z,0.04
2019-03-23T05:28:31.777Z,0.06
2019-03-23T05:31:38.728Z,0.16
2019-03-23T05:34:45.816Z,0.13
2019-03-23T05:37:52.719Z,0.15
2019-03-23T05:40:59.606Z,0.08
2019-03-23T05:44:06.436Z,0.29
2019-03-23T05:47:13.635Z,0.19
2019-03-23T05:50:21.938Z,0.19
2019-03-23T05:53:29.183Z,0.17
2019-03-23T05:56:36.462Z,0.27
2019-03-23T05:59:43.531Z,0.35
2019-03-23T06:02:50.774Z,0.33
2019-03-23T06:05:58.279Z,0.33
2019-03-23T06:09:07.439Z,0.38
2019-03-23T06:12:17.726Z,0.40
2019-03-23T06:15:24.957Z,0.44
2019-03-23T06:18:32.081Z,0.51
2019-03-23T06:21:39.627Z,0.70
2019-03-23T06:24:47.398Z,0.78
2019-03-23T06:27:56.210Z,0.78
2019-03-23T06:31:04.431Z,0.81
2019-03-23T06:34:11.403Z,0.89
2019-03-23T06:37:18.819Z,0.94
2019-03-23T06:40:25.876Z,1.07
2019-03-23T06:43:33.114Z,1.42
2019-03-23T06:46:41.285Z,2.00
2019-03-23T06:49:48.465Z,2.45
2019-03-23T06:52:55.517Z,3.11
2019-03-23T06:56:02.776Z,3.70
2019-03-23T06:59:09.870Z,4.27
2019-03-23T07:02:17.252Z,4.50
2019-03-23T07:05:24.372Z,5.23
2019-03-23T07:08:32.368Z,5.68
2019-03-23T07:11:39.888Z,6.23
2019-03-23T07:14:46.816Z,6.95
2019-03-23T07:17:54.142Z,7.88
2019-03-23T07:21:01.009Z,8.46
2019-03-23T07:24:08.365Z,8.76
2019-03-23T07:27:15.823Z,8.43
2019-03-23T07:30:23.576Z,8.63
2019-03-23T07:33:31.183Z,8.82
2019-03-23T07:36:39.120Z,9.35
2019-03-23T07:39:47.164Z,9.51
2019-03-23T07:42:54.149Z,9.52
2019-03-23T07:46:01.583Z,9.71
2019-03-23T07:49:09.190Z,9.93
2019-03-23T07:52:16.687Z,10.15
2019-03-23T07:55:23.807Z,10.49
2019-03-23T07:58:30.909Z,10.96
2019-03-23T08:01:38.503Z,11.24
2019-03-23T08:04:45.374Z,11.54
2019-03-23T08:07:52.364Z,11.86
2019-03-23T08:10:59.853Z,12.15
2019-03-23T08:14:07.084Z,12.40
2019-03-23T08:17:14.252Z,12.60
2019-03-23T08:20:21.305Z,12.73
2019-03-23T08:23:28.420Z,13.00
2019-03-23T08:26:36.297Z,13.40
2019-03-23T08:29:43.251Z,13.64
2019-03-23T08:32:53.133Z,13.83
2019-03-23T08:36:00.292Z,14.15
2019-03-23T08:39:08.418Z,14.56
2019-03-23T08:42:15.867Z,14.90
2019-03-23T08:45:23.385Z,15.04
2019-03-23T08:48:30.631Z,15.50
2019-03-23T08:51:37.903Z,15.89
2019-03-23T08:54:44.634Z,16.07
2019-03-23T08:57:51.839Z,16.27
2019-03-23T09:01:00.394Z,16.54
2019-03-23T09:04:08.757Z,16.83
2019-03-23T09:07:15.988Z,17.15
2019-03-23T09:10:23.955Z,17.25
2019-03-23T09:13:40.255Z,17.45
2019-03-23T09:16:41.022Z,17.61
2019-03-23T09:19:48.348Z,17.75
2019-03-23T09:22:55.572Z,17.65
2019-03-23T09:26:02.586Z,17.80
2019-03-23T09:29:09.882Z,17.69
2019-03-23T09:32:17.109Z,17.39
2019-03-23T09:35:24.741Z,17.04
2019-03-23T09:38:31.975Z,17.36
2019-03-23T09:41:39.218Z,17.63
2019-03-23T09:44:46.079Z,17.91
2019-03-23T09:47:53.295Z,17.87
2019-03-23T09:51:01.094Z,18.28
2019-03-23T09:54:08.391Z,18.12
2019-03-23T09:57:15.468Z,18.09
2019-03-23T10:00:22.769Z,18.07
2019-03-23T10:03:29.847Z,18.72
2019-03-23T10:06:37.499Z,18.32
2019-03-23T10:09:44.497Z,18.79
2019-03-23T10:12:53.190Z,18.56
2019-03-23T10:16:00.389Z,18.08
2019-03-23T10:19:07.496Z,18.20
2019-03-23T10:22:14.508Z,17.98
2019-03-23T10:25:21.851Z,17.99
2019-03-23T10:28:29.902Z,18.07
2019-03-23T10:31:42.793Z,18.10
2019-03-23T10:34:51.837Z,17.87
2019-03-23T10:37:59.566Z,17.40
2019-03-23T10:41:09.359Z,17.03
2019-03-23T10:44:16.315Z,17.08
2019-03-23T10:47:23.415Z,17.05
2019-03-23T10:50:31.233Z,16.82
2019-03-23T10:53:38.762Z,17.10
2019-03-23T10:56:46.141Z,17.07
2019-03-23T10:59:53.118Z,17.25
2019-03-23T11:03:00.868Z,17.24
2019-03-23T11:06:08.456Z,17.08
2019-03-23T11:09:15.917Z,17.05
2019-03-23T11:12:23.881Z,17.02
2019-03-23T11:15:30.636Z,16.86
2019-03-23T11:18:37.961Z,16.74
2019-03-23T11:21:44.942Z,17.07
2019-03-23T11:24:52.316Z,17.36
2019-03-23T11:27:59.402Z,17.89
2019-03-23T11:31:06.970Z,17.97
2019-03-23T11:34:18.067Z,17.88
2019-03-23T11:37:23.523Z,17.92
2019-03-23T11:40:30.859Z,18.31
2019-03-23T11:43:38.483Z,18.17
2019-03-23T11:46:45.838Z,18.42
2019-03-23T11:49:53.487Z,17.91
2019-03-23T11:53:00.821Z,18.40
2019-03-23T11:56:08.852Z,18.40
2019-03-23T11:59:16.438Z,18.13
2019-03-23T12:02:23.543Z,18.32
2019-03-23T12:05:32.127Z,18.70
2019-03-23T12:08:40.151Z,18.96
2019-03-23T12:11:48.442Z,18.85
2019-03-23T12:14:56.272Z,18.68
2019-03-23T12:18:04.018Z,18.76
2019-03-23T12:21:11.773Z,18.94
2019-03-23T12:24:18.432Z,18.69
2019-03-23T12:27:25.758Z,18.64
2019-03-23T12:30:32.869Z,18.84
2019-03-23T12:33:40.559Z,18.55
2019-03-23T12:36:48.047Z,17.87
2019-03-23T12:39:56.303Z,17.84
2019-03-23T12:43:03.423Z,17.92
2019-03-23T12:46:10.728Z,18.10
2019-03-23T12:49:18.224Z,18.10
2019-03-23T12:52:25.754Z,18.02
2019-03-23T12:55:33.881Z,18.09
2019-03-23T12:58:41.184Z,18.30
2019-03-23T13:01:48.432Z,18.04
2019-03-23T13:04:55.815Z,17.75
2019-03-23T13:08:03.088Z,17.59
2019-03-23T13:11:10.458Z,17.60
2019-03-23T13:14:17.799Z,17.89
2019-03-23T13:17:25.948Z,17.80
2019-03-23T13:23:40.519Z,17.64
2019-03-23T13:26:47.521Z,17.85
2019-03-23T13:29:56.021Z,18.12
2019-03-23T13:33:04.768Z,17.85
2019-03-23T13:36:12.458Z,17.53
2019-03-23T13:39:19.708Z,17.76
2019-03-23T13:42:27.265Z,17.71
2019-03-23T13:45:42.374Z,17.48
2019-03-23T13:48:43.678Z,17.52
2019-03-23T13:51:51.087Z,17.39
2019-03-23T13:54:59.287Z,17.16
2019-03-23T13:58:13.541Z,17.33
2019-03-23T14:01:25.014Z,17.43
2019-03-23T14:04:32.736Z,17.33
2019-03-23T14:07:39.912Z,17.32
2019-03-23T14:10:46.980Z,17.42
2019-03-23T14:13:54.851Z,17.19
2019-03-23T14:17:02.091Z,17.17
2019-03-23T14:20:09.540Z,17.34
2019-03-23T14:23:16.619Z,17.51
2019-03-23T14:26:24.150Z,17.23
2019-03-23T14:29:31.274Z,17.45
2019-03-23T14:32:39.468Z,17.36
2019-03-23T14:35:46.954Z,17.59
2019-03-23T14:38:55.146Z,17.55
2019-03-23T14:42:05.119Z,17.29
2019-03-23T14:45:12.345Z,17.25
2019-03-23T14:48:19.687Z,17.20
2019-03-23T14:51:27.791Z,16.98
2019-03-23T14:54:36.534Z,16.86
2019-03-23T14:57:43.821Z,16.80
2019-03-23T15:00:51.076Z,16.97
2019-03-23T15:03:58.305Z,16.88
2019-03-23T15:07:05.724Z,16.97
2019-03-23T15:10:13.569Z,17.00
2019-03-23T15:13:24.405Z,16.66
2019-03-23T15:16:31.606Z,16.62
2019-03-23T15:19:38.914Z,16.44
2019-03-23T15:22:47.557Z,16.44
2019-03-23T15:25:54.906Z,16.19
2019-03-23T15:29:02.286Z,15.95
2019-03-23T15:32:09.394Z,15.69
2019-03-23T15:35:16.604Z,15.52
2019-03-23T15:38:23.680Z,15.63
2019-03-23T15:41:31.116Z,15.29
2019-03-23T15:44:38.127Z,15.38
2019-03-23T15:47:45.476Z,15.26
2019-03-23T15:50:52.876Z,15.10
2019-03-23T15:54:00.207Z,14.91
2019-03-23T15:57:07.089Z,14.42
2019-03-23T16:00:14.402Z,14.46
2019-03-23T16:03:22.219Z,14.26
2019-03-23T16:06:29.277Z,14.24
2019-03-23T16:09:36.608Z,14.17
2019-03-23T16:12:44.398Z,13.90
2019-03-23T16:15:51.695Z,13.82
2019-03-23T16:18:58.780Z,13.58
2019-03-23T16:22:05.944Z,13.39
2019-03-23T16:25:15.002Z,13.01
2019-03-23T16:28:22.663Z,12.76
2019-03-23T16:31:29.840Z,12.53
2019-03-23T16:34:37.861Z,12.31
2019-03-23T16:37:45.035Z,12.25
2019-03-23T16:40:52.553Z,12.24
2019-03-23T16:44:01.314Z,12.09
2019-03-23T16:47:08.402Z,11.91
2019-03-23T16:50:16.061Z,11.80
2019-03-23T16:53:23.071Z,11.71
2019-03-23T16:56:30.638Z,11.56
2019-03-23T16:59:38.374Z,11.44
2019-03-23T17:02:45.327Z,11.32
2019-03-23T17:05:53.756Z,11.22
2019-03-23T17:09:00.920Z,11.17
2019-03-23T17:12:09.450Z,11.09
2019-03-23T17:15:16.981Z,10.99
2019-03-23T17:18:24.291Z,10.73
2019-03-23T17:21:32.031Z,10.67
2019-03-23T17:24:39.519Z,10.54
2019-03-23T17:27:47.331Z,10.48
2019-03-23T17:30:56.821Z,10.28
2019-03-23T17:34:04.104Z,10.21
2019-03-23T17:37:11.277Z,10.13
2019-03-23T17:40:18.349Z,10.01
2019-03-23T17:43:25.512Z,9.88
2019-03-23T17:46:32.718Z,9.80
2019-03-23T17:49:40.251Z,9.75
2019-03-23T17:52:47.549Z,9.68
2019-03-23T17:55:54.620Z,9.76
2019-03-23T19:36:08.883Z,9.35
2019-03-23T19:39:15.320Z,9.16
2019-03-23T19:42:20.256Z,9.24
2019-03-23T19:45:27.302Z,9.20
2019-03-23T19:48:32.493Z,9.17
2019-03-23T19:51:41.029Z,9.11
2019-03-23T19:54:46.397Z,9.16
2019-03-23T19:57:54.581Z,9.20
2019-03-23T20:00:57.744Z,9.06
2019-03-23T20:04:02.676Z,9.13
2019-03-23T20:07:08.509Z,9.16
2019-03-23T20:10:14.492Z,9.10
2019-03-23T20:13:19.857Z,8.93
2019-03-23T20:16:25.463Z,8.63
2019-03-23T20:19:30.902Z,8.63
2019-03-23T20:22:35.691Z,8.64
2019-03-23T20:25:40.067Z,8.64
2019-03-23T20:28:45.726Z,8.67
2019-03-23T20:31:50.302Z,8.69
2019-03-23T20:34:55.668Z,8.70
2019-03-23T20:38:00.212Z,8.75
2019-03-23T20:41:06.779Z,8.76
2019-03-23T20:44:11.510Z,8.72
2019-03-23T20:47:19.428Z,8.64
2019-03-23T20:50:24.616Z,8.51
2019-03-23T20:53:29.482Z,8.30
2019-03-23T20:56:35.717Z,8.07
2019-03-23T20:59:40.614Z,7.83
2019-03-23T21:02:45.518Z,7.64
2019-03-23T21:05:52.979Z,7.50
2019-03-23T21:08:58.418Z,7.29
2019-03-23T21:12:04.133Z,7.12
2019-03-23T21:15:08.890Z,6.94
2019-03-23T21:18:13.885Z,6.63
2019-03-23T21:21:20.908Z,6.83
2019-03-23T21:24:26.297Z,6.83
2019-03-23T21:27:32.160Z,6.83
2019-03-23T21:30:37.350Z,6.92
2019-03-23T21:33:44.342Z,6.90
2019-03-23T21:36:49.521Z,6.65
2019-03-23T21:39:54.425Z,6.80
2019-03-23T21:42:59.309Z,6.96
2019-03-23T21:46:04.281Z,7.07
2019-03-23T21:49:09.392Z,7.05
2019-03-23T21:52:14.292Z,7.07
2019-03-23T21:55:19.353Z,7.27
2019-03-23T22:01:45.392Z,7.53
2019-03-23T22:04:50.613Z,7.56
2019-03-23T22:07:55.393Z,7.61
2019-03-23T22:11:00.323Z,7.71
2019-03-23T22:14:06.060Z,7.29
2019-03-23T22:17:11.226Z,7.44
2019-03-23T22:20:16.478Z,7.66
2019-03-23T22:23:23.498Z,7.72
2019-03-23T22:26:30.205Z,7.82
2019-03-23T22:29:35.403Z,7.88
2019-03-23T22:32:40.312Z,7.98
2019-03-23T22:35:45.418Z,8.01
2019-03-23T22:38:50.807Z,8.03
2019-03-23T22:41:56.970Z,7.98
2019-03-23T22:45:02.956Z,7.98
2019-03-23T22:48:08.311Z,7.82
2019-03-23T22:51:14.770Z,8.01
2019-03-23T22:54:19.354Z,8.06
2019-03-23T22:57:24.892Z,7.92
2019-03-23T23:00:34.298Z,7.99
2019-03-23T23:03:40.308Z,7.99
2019-03-23T23:06:46.118Z,8.10
2019-03-23T23:09:51.014Z,8.16
2019-03-23T23:12:56.534Z,8.12
2019-03-23T23:16:01.660Z,8.09
2019-03-23T23:19:06.760Z,7.88
2019-03-23T23:22:10.830Z,8.06
2019-03-23T23:25:16.285Z,8.05
2019-03-23T23:28:21.655Z,8.05
2019-03-23T23:31:27.544Z,7.84
2019-03-23T23:34:31.843Z,8.10
2019-03-23T23:37:37.396Z,8.15
2019-03-23T23:40:42.520Z,8.15
2019-03-23T23:43:47.765Z,8.14
2019-03-23T23:46:51.883Z,8.19
2019-03-23T23:49:56.734Z,8.14
2019-03-23T23:53:00.723Z,8.14
2019-03-23T23:56:05.353Z,8.27
2019-03-23T23:59:11.504Z,8.31
